createdAt,value
2018-12-18T00:02:34.593Z,97.70
2018-12-18T00:05:17.890Z,97.60
2018-12-18T00:07:53.105Z,97.60
2018-12-18T00:10:34.409Z,97.60
2018-12-18T00:13:09.897Z,97.70
2018-12-18T00:15:45.717Z,97.70
2018-12-18T00:18:21.529Z,97.70
2018-12-18T00:20:57.460Z,97.50
2018-12-18T00:23:33.318Z,97.50
2018-12-18T00:26:09.144Z,97.50
2018-12-18T00:28:45.900Z,97.40
2018-12-18T00:31:22.069Z,97.40
2018-12-18T00:33:57.778Z,97.40
2018-12-18T00:36:33.564Z,97.40
2018-12-18T00:39:13.916Z,97.40
2018-12-18T00:41:51.402Z,97.40
2018-12-18T00:44:27.158Z,97.40
2018-12-18T00:47:03.127Z,97.40
2018-12-18T00:49:38.937Z,97.40
2018-12-18T00:52:14.850Z,97.40
2018-12-18T00:54:52.484Z,97.40
2018-12-18T00:57:28.553Z,97.40
2018-12-18T01:00:05.925Z,97.40
2018-12-18T01:02:41.337Z,97.40
2018-12-18T01:05:17.742Z,97.30
2018-12-18T01:07:53.902Z,97.40
2018-12-18T01:10:29.629Z,97.30
2018-12-18T01:13:05.425Z,97.40
2018-12-18T01:15:41.261Z,97.40
2018-12-18T01:18:16.980Z,97.50
2018-12-18T01:20:52.964Z,97.40
2018-12-18T01:23:29.001Z,97.50
2018-12-18T01:26:04.666Z,97.40
2018-12-18T01:28:40.878Z,97.40
2018-12-18T01:31:16.630Z,97.40
2018-12-18T01:33:52.373Z,97.30
2018-12-18T01:36:28.144Z,97.40
2018-12-18T01:39:05.686Z,97.40
2018-12-18T01:41:41.005Z,97.50
2018-12-18T01:44:16.893Z,97.50
2018-12-18T01:46:52.702Z,97.50
2018-12-18T01:49:28.573Z,97.40
2018-12-18T01:52:04.294Z,97.40
2018-12-18T01:54:40.045Z,97.40
2018-12-18T01:57:15.809Z,97.30
2018-12-18T01:59:52.144Z,97.20
2018-12-18T02:19:07.148Z,97.10
2018-12-18T02:21:43.326Z,97.10
2018-12-18T02:24:19.317Z,97.00
2018-12-18T02:26:55.239Z,96.90
2018-12-18T02:29:31.077Z,96.90
2018-12-18T02:32:06.946Z,97.00
2018-12-18T02:34:42.863Z,97.10
2018-12-18T02:37:18.716Z,97.00
2018-12-18T02:39:55.573Z,97.10
2018-12-18T02:42:31.389Z,97.00
2018-12-18T02:45:07.448Z,97.00
2018-12-18T02:47:42.975Z,96.80
2018-12-18T02:50:18.927Z,96.60
2018-12-18T02:52:54.868Z,96.60
2018-12-18T02:55:30.686Z,96.50
2018-12-18T02:58:06.485Z,96.40
2018-12-18T03:00:42.265Z,96.50
2018-12-18T03:03:18.508Z,96.60
2018-12-18T03:05:54.147Z,96.90
2018-12-18T03:08:30.106Z,96.50
2018-12-18T03:11:05.882Z,96.50
2018-12-18T03:13:41.862Z,96.40
2018-12-18T03:16:17.986Z,96.90
2018-12-18T03:18:53.755Z,96.50
2018-12-18T03:21:29.734Z,96.40
2018-12-18T03:24:05.510Z,96.50
2018-12-18T03:26:41.322Z,96.40
2018-12-18T03:29:17.104Z,96.20
2018-12-18T03:31:58.205Z,96.20
2018-12-18T03:34:33.985Z,96.30
2018-12-18T03:37:09.857Z,96.20
2018-12-18T03:39:45.698Z,96.10
2018-12-18T03:42:21.768Z,95.90
2018-12-18T03:44:57.522Z,95.90
2018-12-18T03:47:33.383Z,96.20
2018-12-18T03:50:09.304Z,95.90
2018-12-18T03:52:45.043Z,96.00
2018-12-18T03:55:21.121Z,96.00
2018-12-18T03:57:59.909Z,95.90
2018-12-18T04:00:35.273Z,95.90
2018-12-18T04:03:11.542Z,96.00
2018-12-18T04:05:47.419Z,95.90
2018-12-18T04:08:23.358Z,96.00
2018-12-18T04:10:59.210Z,96.10
2018-12-18T04:13:36.130Z,96.00
2018-12-18T04:16:11.871Z,96.10
2018-12-18T04:18:47.725Z,96.40
2018-12-18T04:21:23.513Z,95.90
2018-12-18T04:23:59.333Z,96.20
2018-12-18T04:26:35.386Z,96.10
2018-12-18T04:29:11.322Z,96.20
2018-12-18T04:31:46.902Z,96.20
2018-12-18T04:34:23.028Z,96.20
2018-12-18T04:36:58.730Z,96.30
2018-12-18T04:39:34.675Z,96.30
2018-12-18T04:42:10.549Z,96.40
2018-12-18T04:44:46.630Z,96.40
2018-12-18T04:47:22.287Z,96.40
2018-12-18T04:49:58.174Z,96.40
2018-12-18T04:52:33.971Z,96.40
2018-12-18T04:55:10.045Z,96.40
2018-12-18T04:57:45.860Z,96.40
2018-12-18T05:00:21.591Z,96.40
2018-12-18T05:02:57.262Z,96.40
2018-12-18T05:05:33.074Z,96.40
2018-12-18T05:08:08.966Z,96.50
2018-12-18T05:10:44.895Z,96.40
2018-12-18T05:13:20.815Z,96.50
2018-12-18T05:15:56.529Z,96.50
2018-12-18T05:18:32.318Z,96.50
2018-12-18T05:21:08.401Z,96.40
2018-12-18T05:23:44.286Z,96.20
2018-12-18T05:26:20.084Z,96.30
2018-12-18T05:28:55.766Z,96.40
2018-12-18T05:31:31.682Z,96.40
2018-12-18T05:34:07.637Z,96.40
2018-12-18T05:36:43.595Z,96.40
2018-12-18T05:39:19.085Z,96.40
2018-12-18T05:41:54.972Z,96.40
2018-12-18T05:44:30.693Z,96.40
2018-12-18T05:47:06.500Z,96.40
2018-12-18T05:49:42.535Z,96.50
2018-12-18T05:52:18.245Z,96.40
2018-12-18T05:54:56.823Z,96.30
2018-12-18T05:57:32.983Z,96.50
2018-12-18T06:00:08.934Z,96.50
2018-12-18T06:02:45.423Z,96.50
2018-12-18T06:05:29.094Z,96.60
2018-12-18T06:08:05.350Z,96.60
2018-12-18T06:10:41.242Z,96.40
2018-12-18T06:13:16.926Z,96.40
2018-12-18T06:15:52.918Z,96.50
2018-12-18T06:18:28.756Z,96.40
2018-12-18T06:21:04.713Z,96.40
2018-12-18T06:23:40.429Z,96.40
2018-12-18T06:26:16.269Z,96.50
2018-12-18T06:28:52.183Z,96.40
2018-12-18T06:31:28.044Z,96.30
2018-12-18T06:34:04.099Z,96.00
2018-12-18T06:36:40.367Z,96.30
2018-12-18T06:39:15.992Z,96.30
2018-12-18T06:41:51.816Z,96.40
2018-12-18T06:44:27.813Z,96.30
2018-12-18T06:47:03.860Z,96.20
2018-12-18T06:49:39.224Z,95.90
2018-12-18T06:52:14.930Z,96.00
2018-12-18T06:54:50.765Z,95.80
2018-12-18T06:57:26.664Z,95.80
2018-12-18T07:00:02.529Z,96.00
2018-12-18T07:02:39.666Z,95.80
2018-12-18T07:05:16.952Z,95.80
2018-12-18T07:07:57.329Z,95.90
2018-12-18T07:10:31.066Z,95.80
2018-12-18T07:13:06.900Z,95.70
2018-12-18T07:15:46.012Z,95.80
2018-12-18T07:18:23.261Z,95.80
2018-12-18T07:21:00.838Z,95.80
2018-12-18T07:23:39.387Z,95.80
2018-12-18T07:26:16.075Z,95.50
2018-12-18T07:28:52.699Z,95.40
2018-12-18T07:31:29.458Z,95.50
2018-12-18T07:34:05.864Z,95.40
2018-12-18T07:36:41.469Z,95.50
2018-12-18T07:39:18.274Z,95.30
2018-12-18T07:41:54.091Z,95.30
2018-12-18T07:44:29.773Z,95.30
2018-12-18T07:47:05.545Z,95.20
2018-12-18T07:49:41.313Z,95.20
2018-12-18T07:52:17.023Z,95.40
2018-12-18T07:54:52.846Z,95.20
2018-12-18T07:57:28.730Z,95.20
2018-12-18T08:00:05.414Z,95.20
2018-12-18T08:02:41.610Z,95.00
2018-12-18T08:05:17.850Z,95.10
2018-12-18T08:07:53.314Z,94.80
2018-12-18T08:10:29.193Z,95.00
2018-12-18T08:13:05.134Z,95.00
2018-12-18T08:15:41.050Z,95.10
2018-12-18T08:18:16.638Z,95.10
2018-12-18T08:20:52.428Z,95.00
2018-12-18T08:23:28.294Z,95.50
2018-12-18T08:26:04.401Z,95.10
2018-12-18T08:28:40.050Z,94.90
2018-12-18T08:31:15.912Z,94.80
2018-12-18T10:12:55.777Z,93.70
2018-12-18T10:15:31.272Z,93.60
2018-12-18T10:18:07.298Z,93.70
2018-12-18T10:20:43.069Z,93.60
2018-12-18T10:23:19.782Z,93.60
2018-12-18T10:25:58.340Z,93.30
2018-12-18T10:28:34.916Z,93.30
2018-12-18T10:31:12.741Z,93.20
2018-12-18T10:33:48.418Z,93.00
2018-12-18T10:36:24.362Z,93.20
2018-12-18T10:39:00.120Z,93.20
2018-12-18T10:41:36.001Z,93.80
2018-12-18T10:44:12.294Z,93.30
2018-12-18T10:46:48.494Z,93.10
2018-12-18T10:49:24.541Z,93.10
2018-12-18T10:52:00.364Z,92.80
2018-12-18T10:54:36.234Z,93.30
2018-12-18T10:57:12.325Z,93.30
2018-12-18T10:59:47.977Z,93.50
2018-12-18T11:02:24.031Z,93.30
2018-12-18T11:07:58.248Z,93.30
2018-12-18T11:10:34.060Z,93.30
2018-12-18T11:13:14.823Z,93.30
2018-12-18T11:15:50.185Z,92.90
2018-12-18T11:18:25.863Z,92.90
2018-12-18T11:21:01.861Z,92.80
2018-12-18T11:23:37.439Z,92.90
2018-12-18T11:26:13.557Z,92.60
2018-12-18T11:28:49.565Z,92.70
2018-12-18T11:31:25.999Z,92.70
2018-12-18T11:34:01.614Z,92.90
2018-12-18T11:36:37.224Z,92.90
2018-12-18T11:39:13.259Z,92.40
2018-12-18T11:41:49.575Z,92.80
2018-12-18T11:44:24.903Z,92.70
2018-12-18T11:47:00.791Z,92.50
2018-12-18T11:49:36.573Z,92.40
2018-12-18T11:52:12.278Z,92.40
2018-12-18T11:54:47.880Z,92.50
2018-12-18T11:57:24.093Z,92.10
2018-12-18T11:59:59.677Z,91.90
2018-12-18T12:02:35.439Z,92.10
2018-12-18T12:05:13.595Z,92.00
2018-12-18T12:07:49.697Z,92.10
2018-12-18T12:10:25.646Z,91.50
2018-12-18T12:13:01.600Z,91.10
2018-12-18T12:15:37.516Z,90.80
2018-12-18T12:18:13.342Z,90.60
2018-12-18T12:20:48.905Z,90.60
2018-12-18T12:23:24.893Z,90.60
2018-12-18T12:26:05.007Z,90.60
2018-12-18T12:28:40.593Z,90.50
2018-12-18T12:31:15.693Z,90.80
2018-12-18T12:33:51.749Z,90.80
2018-12-18T12:36:29.762Z,91.10
2018-12-18T12:39:08.317Z,90.70
2018-12-18T12:41:44.345Z,90.70
2018-12-18T12:44:20.374Z,90.60
2018-12-18T12:46:56.194Z,91.30
2018-12-18T12:49:43.978Z,90.80
2018-12-18T12:52:20.243Z,91.10
2018-12-18T12:54:56.033Z,90.80
2018-12-18T12:57:32.137Z,90.90
2018-12-18T13:00:08.486Z,91.10
2018-12-18T13:02:43.704Z,91.20
2018-12-18T13:05:19.528Z,91.40
2018-12-18T13:07:56.291Z,91.10
2018-12-18T13:10:32.468Z,90.80
2018-12-18T13:13:08.603Z,91.00
2018-12-18T13:15:44.949Z,90.70
2018-12-18T13:18:20.653Z,90.80
2018-12-18T13:20:56.570Z,90.40
2018-12-18T13:23:32.433Z,89.80
2018-12-18T13:26:08.355Z,87.70
2018-12-18T13:28:44.043Z,83.60
2018-12-18T13:31:19.821Z,82.00
2018-12-18T13:33:55.465Z,80.40
2018-12-18T13:36:31.147Z,78.70
2018-12-18T13:39:07.556Z,81.40
2018-12-18T13:41:43.720Z,81.90
2018-12-18T13:44:20.202Z,83.90
2018-12-18T13:46:55.796Z,85.70
2018-12-18T13:49:31.421Z,86.80
2018-12-18T13:52:07.210Z,87.10
2018-12-18T13:54:43.002Z,87.70
2018-12-18T13:57:19.034Z,88.70
2018-12-18T13:59:55.079Z,89.00
2018-12-18T14:02:30.822Z,89.40
2018-12-18T14:05:06.516Z,89.90
2018-12-18T14:07:42.313Z,90.40
2018-12-18T14:10:18.236Z,90.40
2018-12-18T14:12:57.260Z,90.50
2018-12-18T14:15:34.133Z,90.40
2018-12-18T14:18:09.885Z,90.70
2018-12-18T14:20:46.346Z,90.60
2018-12-18T14:23:49.276Z,90.80
2018-12-18T14:26:29.598Z,91.00
2018-12-18T14:29:06.563Z,91.20
2018-12-18T14:31:43.463Z,91.30
2018-12-18T14:34:26.166Z,91.50
2018-12-18T14:37:05.290Z,91.50
2018-12-18T14:39:41.926Z,91.50
2018-12-18T14:42:29.105Z,91.70
2018-12-18T14:45:11.001Z,91.80
2018-12-18T14:51:07.451Z,92.20
2018-12-18T14:53:45.716Z,91.60
2018-12-18T14:56:22.097Z,91.70
2018-12-18T14:58:58.001Z,91.70
2018-12-18T15:01:34.033Z,91.70
2018-12-18T15:04:09.207Z,91.90
2018-12-18T15:06:45.465Z,92.00
2018-12-18T15:09:20.733Z,92.30
2018-12-18T15:11:56.475Z,92.20
2018-12-18T15:14:32.162Z,92.00
2018-12-18T15:17:08.314Z,92.10
2018-12-18T15:19:44.253Z,92.40
2018-12-18T15:22:20.263Z,92.10
2018-12-18T15:24:56.313Z,92.60
2018-12-18T15:27:31.809Z,92.20
2018-12-18T15:30:09.724Z,92.30
2018-12-18T15:32:45.625Z,92.40
2018-12-18T15:35:21.630Z,92.60
2018-12-18T15:37:57.592Z,92.20
2018-12-18T15:40:33.849Z,91.80
2018-12-18T15:43:10.668Z,92.00
2018-12-18T15:45:46.238Z,91.70
2018-12-18T15:48:22.748Z,91.80
2018-12-18T15:50:58.491Z,91.60
2018-12-18T15:57:30.550Z,92.00
2018-12-18T16:13:57.084Z,91.70
2018-12-18T16:16:33.225Z,91.90
2018-12-18T16:19:08.945Z,91.80
2018-12-18T16:21:45.011Z,91.60
2018-12-18T16:24:20.949Z,91.80
2018-12-18T16:26:56.875Z,91.60
2018-12-18T16:29:32.700Z,91.60
2018-12-18T16:32:08.538Z,91.70
2018-12-18T16:34:44.414Z,91.60
2018-12-18T16:37:23.185Z,91.80
2018-12-18T16:39:58.188Z,91.90
2018-12-18T16:42:33.955Z,91.50
2018-12-18T16:45:09.827Z,91.60
2018-12-18T16:47:46.433Z,91.30
2018-12-18T16:50:26.548Z,91.40
2018-12-18T16:53:00.285Z,91.50
2018-12-18T16:55:36.199Z,91.30
2018-12-18T16:58:12.160Z,91.20
2018-12-18T17:00:48.183Z,91.20
2018-12-18T17:03:24.294Z,91.40
2018-12-18T17:06:00.204Z,91.20
2018-12-18T17:08:36.063Z,91.00
2018-12-18T17:11:12.017Z,90.90
2018-12-18T17:13:47.954Z,90.80
2018-12-18T17:16:23.598Z,90.90
2018-12-18T17:18:59.412Z,90.80
2018-12-18T17:21:35.304Z,90.70
2018-12-18T17:24:10.923Z,90.70
2018-12-18T17:26:46.815Z,90.90
2018-12-18T17:29:22.620Z,90.70
2018-12-18T17:31:58.479Z,90.90
2018-12-18T17:34:34.689Z,90.90
2018-12-18T17:37:10.425Z,90.90
2018-12-18T17:39:47.322Z,91.30
2018-12-18T17:42:23.189Z,90.90
2018-12-18T17:44:59.179Z,90.80
2018-12-18T17:47:35.031Z,90.70
2018-12-18T17:50:11.140Z,90.60
2018-12-18T17:52:46.862Z,90.70
2018-12-18T17:55:22.766Z,90.60
2018-12-18T17:57:59.022Z,90.60
2018-12-18T18:00:34.913Z,90.60
2018-12-18T18:03:10.317Z,90.30
2018-12-18T18:05:45.968Z,90.50
2018-12-18T18:08:21.874Z,90.50
2018-12-18T18:10:58.569Z,90.50
2018-12-18T18:13:34.719Z,90.80
2018-12-18T18:16:10.582Z,90.80
2018-12-18T18:18:46.507Z,90.50
2018-12-18T18:21:22.028Z,90.70
2018-12-18T18:23:57.763Z,90.50
2018-12-18T18:26:33.626Z,90.60
2018-12-18T18:29:09.577Z,90.50
2018-12-18T18:31:45.362Z,90.30
2018-12-18T18:34:21.076Z,90.40
2018-12-18T18:36:57.169Z,90.50
2018-12-18T18:39:33.694Z,90.90
2018-12-18T18:42:24.537Z,90.40
2018-12-18T18:45:13.052Z,90.60
2018-12-18T18:48:04.450Z,90.50
2018-12-18T18:50:57.612Z,90.40
2018-12-18T18:53:50.747Z,90.30
2018-12-18T18:56:42.706Z,90.60
2018-12-18T18:59:31.434Z,90.50
2018-12-18T19:02:23.697Z,90.70
2018-12-18T19:05:18.318Z,90.50
2018-12-18T19:08:09.801Z,90.50
2018-12-18T19:10:54.983Z,90.30
2018-12-18T19:13:45.762Z,90.40
2018-12-18T19:16:28.117Z,90.40
2018-12-18T19:19:18.801Z,90.50
2018-12-18T19:21:56.861Z,90.20
2018-12-18T19:24:32.622Z,90.20
2018-12-18T19:27:08.504Z,90.40
2018-12-18T19:29:44.526Z,90.40
2018-12-18T19:32:20.350Z,90.50
2018-12-18T19:34:55.995Z,90.40
2018-12-18T19:37:31.841Z,90.20
2018-12-18T19:40:08.018Z,90.30
2018-12-18T19:42:43.702Z,90.10
2018-12-18T19:45:19.493Z,90.10
2018-12-18T19:47:56.307Z,90.00
2018-12-18T19:50:32.146Z,89.80
2018-12-18T19:53:07.829Z,89.80
2018-12-18T19:55:44.566Z,89.50
2018-12-18T19:58:19.871Z,89.90
2018-12-18T20:00:55.522Z,89.90
2018-12-18T20:03:36.294Z,90.00
2018-12-18T20:06:13.310Z,90.00
2018-12-18T20:08:49.243Z,90.00
2018-12-18T20:11:25.530Z,90.30
2018-12-18T20:14:01.471Z,89.20
2018-12-18T20:16:36.853Z,89.70
2018-12-18T20:19:12.928Z,90.00
2018-12-18T20:21:48.478Z,89.60
2018-12-18T20:24:24.374Z,89.80
2018-12-18T20:27:00.214Z,89.80
2018-12-18T20:29:36.208Z,89.10
2018-12-18T20:32:13.250Z,89.30
2018-12-18T20:34:48.730Z,89.50
2018-12-18T20:37:24.746Z,88.80
2018-12-18T20:40:00.630Z,89.00
2018-12-18T20:42:36.531Z,89.60
2018-12-18T20:45:12.391Z,89.40
2018-12-18T20:47:48.045Z,90.00
2018-12-18T20:50:24.082Z,89.40
2018-12-18T20:52:59.836Z,89.30
2018-12-18T20:55:35.530Z,89.20
2018-12-18T20:58:11.963Z,89.40
2018-12-18T21:00:47.139Z,89.30
2018-12-18T21:03:23.013Z,89.70
2018-12-18T21:05:59.585Z,89.40
2018-12-18T21:08:35.789Z,89.20
2018-12-18T21:11:11.925Z,89.20
2018-12-18T21:13:47.578Z,89.70
2018-12-18T21:16:23.416Z,89.80
2018-12-18T21:18:59.532Z,89.50
2018-12-18T21:21:35.549Z,89.50
2018-12-18T21:24:11.564Z,89.20
2018-12-18T21:26:47.280Z,89.60
2018-12-18T21:29:23.092Z,89.30
2018-12-18T21:31:58.974Z,89.20
2018-12-18T21:34:34.782Z,89.30
2018-12-18T21:37:10.604Z,88.90
2018-12-18T21:39:46.405Z,89.20
2018-12-18T21:42:22.419Z,89.10
2018-12-18T21:44:58.334Z,88.50
2018-12-18T21:47:34.029Z,88.10
2018-12-18T21:50:09.827Z,89.00
2018-12-18T21:52:45.643Z,88.90
2018-12-18T21:55:21.593Z,88.60
2018-12-18T21:57:58.533Z,89.00
2018-12-18T22:00:34.325Z,88.80
2018-12-18T22:03:10.287Z,88.80
2018-12-18T22:05:46.157Z,88.00
2018-12-18T22:08:22.062Z,88.40
2018-12-18T22:10:57.694Z,89.00
2018-12-18T22:13:33.565Z,88.30
2018-12-18T22:16:09.426Z,87.50
2018-12-18T22:18:45.291Z,88.30
2018-12-18T22:21:20.953Z,87.90
2018-12-18T22:23:56.797Z,87.80
2018-12-18T22:26:32.599Z,87.40
2018-12-18T22:29:08.468Z,87.30
2018-12-18T22:31:44.297Z,88.00
2018-12-18T22:34:20.253Z,88.60
2018-12-18T22:36:56.251Z,89.00
2018-12-18T22:39:32.135Z,89.10
2018-12-18T22:42:08.025Z,88.50
2018-12-18T22:44:43.954Z,87.30
2018-12-18T22:47:19.666Z,87.10
2018-12-18T22:49:55.364Z,87.80
2018-12-18T22:52:31.362Z,87.80
2018-12-18T22:55:07.467Z,88.00
2018-12-18T22:57:43.193Z,87.90
2018-12-18T23:00:24.479Z,87.50
2018-12-18T23:03:01.692Z,88.00
2018-12-18T23:05:37.621Z,88.20
2018-12-18T23:08:13.686Z,87.80
2018-12-18T23:10:49.679Z,88.10
2018-12-18T23:13:25.421Z,87.80
2018-12-18T23:16:01.279Z,87.90
2018-12-18T23:18:36.882Z,86.30
2018-12-18T23:21:12.599Z,85.70
2018-12-18T23:23:48.654Z,85.80
2018-12-18T23:26:24.496Z,85.80
2018-12-18T23:29:00.356Z,86.00
2018-12-18T23:31:36.317Z,85.90
2018-12-18T23:34:13.110Z,86.90
2018-12-18T23:36:49.046Z,86.00
2018-12-18T23:39:24.904Z,86.30
2018-12-18T23:42:01.153Z,86.10
2018-12-18T23:44:36.762Z,85.40
2018-12-18T23:47:12.539Z,85.80
2018-12-18T23:49:48.398Z,86.10
2018-12-18T23:52:24.220Z,86.00
2018-12-18T23:54:59.867Z,86.10
2018-12-18T23:57:35.942Z,85.70
